Time;durP1;ratioP1;P1;durP2;ratioP2;P2;SDS_P1;SDS_P2;PMS_P1;PMS_P2;Temp;Humidity;BMP_temperature;BMP_pressure;BME280_temperature;BME280_humidity;BME280_pressure;Samples;Min_cycle;Max_cycle;Signal;HPM_P1;HPM_P2
2024/04/12 00:00:47;;;;;;;2.55;2.40;;;7.00;99.90;;;;;;5453744;26;20220;-64
2024/04/12 00:03:17;;;;;;;2.80;2.60;;;7.30;99.90;;;;;;5453946;26;20214;-64
2024/04/12 00:05:47;;;;;;;3.80;2.55;;;7.30;99.90;;;;;;5453679;26;20268;-64
2024/04/12 00:08:14;;;;;;;3.25;2.97;;;7.50;99.90;;;;;;5453771;26;20225;-64
2024/04/12 00:10:40;;;;;;;3.83;2.80;;;7.20;99.90;;;;;;5453520;26;20267;-64
2024/04/12 00:13:07;;;;;;;4.95;3.20;;;7.20;99.90;;;;;;5453827;26;20217;-64
2024/04/12 00:15:33;;;;;;;6.85;3.13;;;7.10;99.90;;;;;;5453699;26;20264;-64
2024/04/12 00:18:01;;;;;;;4.57;2.65;;;7.20;99.90;;;;;;5453554;26;20256;-64
2024/04/12 00:20:29;;;;;;;5.25;3.05;;;7.00;99.90;;;;;;5453152;26;20213;-64
2024/04/12 00:22:55;;;;;;;7.93;3.75;;;6.90;99.90;;;;;;5453559;26;20318;-64
2024/04/12 00:25:24;;;;;;;3.15;2.85;;;7.00;99.90;;;;;;5453445;26;20218;-64
2024/04/12 00:27:50;;;;;;;5.82;3.25;;;7.10;99.90;;;;;;5453323;26;20217;-64
2024/04/12 00:30:37;;;;;;;4.00;3.27;;;7.30;99.90;;;;;;5453150;26;20255;-64
2024/04/12 00:33:09;;;;;;;3.58;2.45;;;7.20;99.90;;;;;;5453491;26;20692;-63
2024/04/12 00:35:41;;;;;;;3.55;2.80;;;7.20;99.90;;;;;;5453217;26;20267;-64
2024/04/12 00:38:09;;;;;;;5.40;3.72;;;7.20;99.90;;;;;;5453018;26;20296;-64
2024/04/12 00:40:37;;;;;;;4.00;3.70;;;7.20;99.90;;;;;;5452970;26;20272;-64
2024/04/12 00:43:12;;;;;;;3.17;2.92;;;7.10;99.90;;;;;;5452188;26;20260;-66
2024/04/12 00:45:48;;;;;;;3.83;3.17;;;6.90;99.90;;;;;;5453239;26;20328;-64
2024/04/12 00:48:21;;;;;;;4.93;3.20;;;6.80;99.90;;;;;;5453137;26;20280;-64
2024/04/12 00:50:50;;;;;;;4.18;2.40;;;6.80;99.90;;;;;;5453141;26;20218;-64
2024/04/12 00:53:22;;;;;;;3.55;3.25;;;6.70;99.90;;;;;;5453596;26;20683;-64
2024/04/12 00:56:00;;;;;;;3.55;3.25;;;7.00;99.90;;;;;;5453252;26;20255;-64
2024/04/12 00:58:32;;;;;;;4.30;3.17;;;6.80;99.90;;;;;;5453203;26;20224;-64
2024/04/12 01:01:10;;;;;;;4.75;3.15;;;6.80;99.90;;;;;;5452772;26;20283;-64
2024/04/12 01:03:37;;;;;;;9.05;3.65;;;7.10;99.90;;;;;;5453343;26;20300;-64
2024/04/12 01:06:05;;;;;;;4.30;3.15;;;6.90;99.90;;;;;;5452901;26;20688;-64
2024/04/12 01:08:31;;;;;;;2.90;2.70;;;7.00;99.90;;;;;;5452949;26;20230;-64
2024/04/12 01:10:59;;;;;;;5.37;3.30;;;6.90;99.90;;;;;;5453079;26;20256;-64
2024/04/12 01:13:26;;;;;;;2.63;2.35;;;7.00;99.90;;;;;;5452803;26;20445;-64
2024/04/12 01:15:53;;;;;;;2.97;2.10;;;7.10;99.90;;;;;;5452785;26;20220;-64
2024/04/12 01:18:19;;;;;;;6.82;3.72;;;7.00;99.90;;;;;;5452681;26;20259;-64
2024/04/12 01:20:45;;;;;;;2.67;2.47;;;6.90;99.90;;;;;;5452321;26;20255;-64
2024/04/12 01:23:15;;;;;;;2.73;2.53;;;6.90;99.90;;;;;;5452772;26;20556;-64
2024/04/12 01:25:44;;;;;;;3.33;3.00;;;7.10;99.90;;;;;;5452615;26;20972;-64
2024/04/12 01:28:09;;;;;;;3.35;2.97;;;6.90;99.90;;;;;;5452430;26;20705;-64
2024/04/12 01:30:39;;;;;;;7.57;2.57;;;6.70;99.90;;;;;;5452263;26;20226;-64
2024/04/12 01:33:07;;;;;;;2.90;2.60;;;6.80;99.90;;;;;;5452512;26;20310;-64
2024/04/12 01:35:33;;;;;;;4.55;3.67;;;6.70;99.90;;;;;;5452769;26;20263;-64
2024/04/12 01:38:16;;;;;;;2.83;2.35;;;6.90;99.90;;;;;;5452195;26;20728;-64
2024/04/12 01:40:42;;;;;;;3.08;2.40;;;7.00;99.90;;;;;;5452054;26;20228;-64
2024/04/12 01:43:08;;;;;;;2.50;2.20;;;7.00;99.90;;;;;;5452522;26;20217;-64
2024/04/12 01:45:33;;;;;;;4.17;3.10;;;7.00;99.90;;;;;;5452327;26;20446;-64
2024/04/12 01:47:59;;;;;;;4.10;3.70;;;6.90;99.90;;;;;;5452279;26;21004;-64
2024/04/12 01:50:27;;;;;;;10.30;2.78;;;6.70;99.90;;;;;;5451936;26;20252;-64
2024/04/12 01:52:57;;;;;;;4.10;3.17;;;6.70;99.90;;;;;;5452243;26;20218;-64
2024/04/12 01:55:26;;;;;;;4.15;3.05;;;6.80;99.90;;;;;;5451988;26;20334;-64
2024/04/12 01:57:58;;;;;;;12.93;3.85;;;6.70;99.90;;;;;;5452023;26;20208;-64
2024/04/12 02:00:24;;;;;;;3.75;3.45;;;6.80;99.90;;;;;;5451776;26;20815;-64
2024/04/12 02:02:54;;;;;;;2.95;2.70;;;6.90;99.90;;;;;;5452103;26;20219;-64
2024/04/12 02:05:32;;;;;;;5.55;3.88;;;6.80;99.90;;;;;;5450481;26;20212;-64
2024/04/12 02:08:08;;;;;;;4.63;3.47;;;7.10;99.90;;;;;;5451954;26;20225;-64
2024/04/12 02:10:41;;;;;;;4.30;3.10;;;6.80;99.90;;;;;;5451777;26;20313;-64
2024/04/12 02:13:10;;;;;;;4.38;3.97;;;7.00;99.90;;;;;;5452053;26;20220;-64
2024/04/12 02:15:36;;;;;;;9.52;3.97;;;7.00;99.90;;;;;;5451977;26;20220;-64
2024/04/12 02:18:05;;;;;;;4.75;3.75;;;7.00;99.90;;;;;;5451701;26;20337;-64
2024/04/12 02:20:36;;;;;;;7.45;4.18;;;7.00;99.90;;;;;;5451435;26;20213;-64
2024/04/12 02:23:06;;;;;;;3.58;3.28;;;7.00;99.90;;;;;;5452007;26;20256;-64
2024/04/12 02:25:35;;;;;;;5.43;4.43;;;7.00;99.90;;;;;;5451792;26;20260;-64
2024/04/12 02:28:07;;;;;;;4.90;3.67;;;7.00;99.90;;;;;;5452003;26;20224;-64
2024/04/12 02:30:43;;;;;;;7.88;3.50;;;6.90;99.90;;;;;;5451433;26;20314;-64
2024/04/12 02:33:16;;;;;;;3.22;2.75;;;6.70;99.90;;;;;;5451625;26;20693;-64
2024/04/12 02:35:43;;;;;;;5.00;3.20;;;6.70;99.90;;;;;;5451735;26;20303;-64
2024/04/12 02:38:21;;;;;;;3.50;3.10;;;6.70;99.90;;;;;;5451423;26;20224;-64
2024/04/12 02:40:48;;;;;;;6.25;4.00;;;6.70;99.90;;;;;;5451292;26;20330;-64
2024/04/12 02:43:16;;;;;;;3.33;2.55;;;7.00;99.90;;;;;;5451562;26;20558;-64
2024/04/12 02:45:49;;;;;;;5.43;3.58;;;6.90;99.90;;;;;;5451613;26;20210;-64
2024/04/12 02:48:17;;;;;;;4.07;3.67;;;6.90;99.90;;;;;;5451352;26;20237;-64
2024/04/12 02:50:44;;;;;;;3.45;3.15;;;6.80;99.90;;;;;;5451137;26;20630;-64
2024/04/12 02:53:17;;;;;;;5.65;3.10;;;6.80;99.90;;;;;;5451439;26;20228;-64
2024/04/12 02:55:43;;;;;;;5.05;3.40;;;6.90;99.90;;;;;;5451678;26;20703;-64
2024/04/12 02:58:09;;;;;;;3.47;3.17;;;7.00;99.90;;;;;;5451127;26;20282;-64
2024/04/12 03:00:37;;;;;;;7.10;4.13;;;6.80;99.90;;;;;;5450892;26;20574;-64
2024/04/12 03:03:06;;;;;;;4.10;3.78;;;7.00;99.90;;;;;;5451243;26;20638;-66
2024/04/12 03:05:32;;;;;;;5.68;3.17;;;6.70;99.90;;;;;;5451041;26;20221;-64
2024/04/12 03:08:00;;;;;;;3.50;3.20;;;6.90;99.90;;;;;;5451011;26;20551;-64
2024/04/12 03:10:32;;;;;;;4.10;3.10;;;6.80;99.90;;;;;;5450730;26;20447;-64
2024/04/12 03:13:00;;;;;;;3.80;3.42;;;6.50;99.90;;;;;;5451102;26;20260;-64
2024/04/12 03:15:27;;;;;;;3.17;2.58;;;6.80;99.90;;;;;;5451110;26;20316;-64
2024/04/12 03:17:52;;;;;;;3.50;3.20;;;6.50;99.90;;;;;;5450916;26;20313;-64
2024/04/12 03:20:18;;;;;;;5.63;3.50;;;6.70;99.90;;;;;;5450549;26;20766;-64
2024/04/12 03:22:48;;;;;;;9.52;3.65;;;6.80;99.90;;;;;;5450886;26;20217;-65
2024/04/12 03:25:15;;;;;;;3.60;3.28;;;7.00;99.90;;;;;;5450839;26;20616;-65
2024/04/12 03:27:42;;;;;;;4.18;3.53;;;6.70;99.90;;;;;;5450859;26;20212;-64
2024/04/12 03:30:13;;;;;;;5.28;3.60;;;6.60;99.90;;;;;;5450547;26;20213;-64
2024/04/12 03:32:46;;;;;;;4.20;3.40;;;6.60;99.90;;;;;;5450702;26;20224;-65
2024/04/12 03:35:20;;;;;;;6.05;4.20;;;6.70;99.90;;;;;;5450754;26;20269;-65
2024/04/12 03:38:24;;;;;;;4.63;4.22;;;6.70;99.90;;;;;;5450264;26;20216;-65
2024/04/12 03:40:46;;;;;;;9.27;5.22;;;6.80;99.90;;;;;;5450288;26;20205;-65
2024/04/12 03:43:12;;;;;;;7.27;3.67;;;7.00;99.90;;;;;;5450721;26;20246;-65
2024/04/12 03:45:38;;;;;;;4.83;4.20;;;6.80;99.90;;;;;;5450528;26;20703;-65
2024/04/12 03:48:04;;;;;;;5.17;4.10;;;7.10;99.90;;;;;;5450294;26;20237;-65
2024/04/12 03:50:30;;;;;;;12.63;4.55;;;6.80;99.90;;;;;;5450175;26;20211;-64
2024/04/12 03:53:07;;;;;;;7.43;4.90;;;6.70;99.90;;;;;;5450384;26;20287;-64
2024/04/12 03:55:33;;;;;;;4.70;4.30;;;6.70;99.90;;;;;;5450365;26;20256;-65
2024/04/12 03:58:02;;;;;;;4.73;3.07;;;6.70;99.90;;;;;;5450202;26;20219;-65
2024/04/12 04:00:28;;;;;;;4.20;3.15;;;6.60;99.90;;;;;;5449737;26;20220;-65
2024/04/12 04:02:53;;;;;;;4.20;3.60;;;6.60;99.90;;;;;;5450360;26;20272;-65
2024/04/12 04:05:25;;;;;;;4.60;4.20;;;6.80;99.90;;;;;;5450302;26;20698;-64
2024/04/12 04:07:51;;;;;;;9.02;3.97;;;6.80;99.90;;;;;;5450237;26;20246;-65
2024/04/12 04:10:21;;;;;;;4.95;4.47;;;6.70;99.90;;;;;;5449708;26;20227;-64
2024/04/12 04:12:49;;;;;;;3.30;3.05;;;6.80;99.90;;;;;;5450009;26;20267;-64
2024/04/12 04:15:24;;;;;;;6.07;3.85;;;6.80;99.90;;;;;;5449728;26;20216;-64
2024/04/12 04:17:50;;;;;;;3.85;3.30;;;7.00;99.90;;;;;;5451481;26;20322;-65
2024/04/12 04:20:17;;;;;;;6.37;3.70;;;6.70;99.90;;;;;;5453385;26;20222;-65
2024/04/12 04:22:49;;;;;;;8.27;4.03;;;6.70;99.90;;;;;;5453716;26;20339;-64
2024/04/12 04:25:18;;;;;;;5.07;3.63;;;6.80;99.90;;;;;;5453666;26;20332;-64
2024/04/12 04:27:45;;;;;;;8.93;3.90;;;6.70;99.90;;;;;;5453326;26;20303;-65
2024/04/12 04:30:17;;;;;;;7.88;4.78;;;6.70;99.90;;;;;;5453069;26;20262;-65
2024/04/12 04:32:44;;;;;;;4.55;3.63;;;6.60;99.90;;;;;;5453548;26;20220;-64
2024/04/12 04:35:10;;;;;;;5.38;4.88;;;6.50;99.90;;;;;;5453516;26;20215;-65
2024/04/12 04:37:39;;;;;;;5.60;3.67;;;6.70;99.90;;;;;;5453434;26;20736;-64
2024/04/12 04:40:12;;;;;;;4.63;3.45;;;6.60;99.90;;;;;;5453029;26;20269;-64
2024/04/12 04:42:38;;;;;;;4.28;3.78;;;6.80;99.90;;;;;;5453371;26;20220;-65
2024/04/12 04:45:07;;;;;;;7.65;4.70;;;6.80;99.90;;;;;;5453250;26;20264;-65
2024/04/12 04:47:39;;;;;;;7.57;3.17;;;6.60;99.90;;;;;;5453184;26;20221;-65
2024/04/12 04:50:08;;;;;;;3.55;3.25;;;6.60;99.90;;;;;;5452795;26;20565;-65
2024/04/12 04:52:37;;;;;;;5.25;3.30;;;6.60;99.90;;;;;;5453083;26;20294;-65
2024/04/12 04:55:04;;;;;;;9.77;4.70;;;6.80;99.90;;;;;;5453193;26;20220;-65
2024/04/12 04:57:30;;;;;;;7.75;3.88;;;6.70;99.90;;;;;;5453106;26;20321;-65
2024/04/12 05:00:05;;;;;;;3.65;3.35;;;6.90;99.90;;;;;;5452576;26;20289;-65
2024/04/12 05:02:34;;;;;;;5.82;4.47;;;6.90;99.90;;;;;;5453088;26;20266;-65
2024/04/12 05:05:06;;;;;;;4.25;3.50;;;7.30;99.90;;;;;;5453014;26;20681;-65
2024/04/12 05:07:35;;;;;;;4.57;4.15;;;7.10;99.90;;;;;;5453114;26;20213;-65
2024/04/12 05:10:08;;;;;;;5.57;3.85;;;7.30;99.90;;;;;;5452608;26;20280;-65
2024/04/12 05:12:37;;;;;;;4.22;3.75;;;7.40;99.90;;;;;;5453028;26;20217;-65
2024/04/12 05:15:10;;;;;;;4.57;4.18;;;7.40;99.90;;;;;;5452803;26;20220;-65
2024/04/12 05:17:38;;;;;;;5.50;4.10;;;7.50;99.90;;;;;;5452659;26;20590;-65
2024/04/12 05:20:14;;;;;;;3.55;3.17;;;7.50;99.90;;;;;;5452222;26;20275;-64
2024/04/12 05:22:41;;;;;;;4.88;3.90;;;7.60;99.90;;;;;;5452785;26;20272;-65
2024/04/12 05:25:13;;;;;;;4.50;3.65;;;7.70;99.90;;;;;;5453515;26;20256;-65
2024/04/12 05:27:42;;;;;;;5.40;4.10;;;7.80;99.90;;;;;;5453038;26;20233;-65
2024/04/12 05:30:08;;;;;;;5.50;3.95;;;7.90;99.90;;;;;;5451700;26;20258;-64
2024/04/12 05:32:34;;;;;;;4.00;3.63;;;7.90;99.90;;;;;;5452637;26;20256;-65
2024/04/12 05:35:06;;;;;;;3.63;3.30;;;7.90;99.90;;;;;;5452506;26;20954;-65
2024/04/12 05:37:35;;;;;;;2.63;2.33;;;8.10;99.90;;;;;;5452849;26;20217;-65
2024/04/12 05:40:04;;;;;;;3.88;3.50;;;8.40;99.90;;;;;;5451993;26;20320;-65
2024/04/12 05:42:30;;;;;;;4.70;3.40;;;8.40;99.90;;;;;;5452301;26;20819;-65
2024/04/12 05:45:04;;;;;;;4.15;3.75;;;8.50;99.90;;;;;;5452480;26;20218;-65
2024/04/12 05:47:29;;;;;;;4.88;4.22;;;8.60;99.90;;;;;;5452623;26;20257;-65
2024/04/12 05:49:55;;;;;;;7.53;4.47;;;9.10;99.90;;;;;;5451883;26;20804;-65
2024/04/12 05:52:22;;;;;;;3.90;3.43;;;9.70;99.90;;;;;;5452489;26;20215;-65
2024/04/12 05:54:50;;;;;;;7.50;4.90;;;10.00;99.90;;;;;;5452350;26;20588;-65
2024/04/12 05:57:18;;;;;;;6.77;4.47;;;10.40;99.90;;;;;;5452145;26;20440;-65
2024/04/12 05:59:44;;;;;;;13.23;6.70;;;10.60;99.50;;;;;;5451633;26;20471;-65
2024/04/12 06:02:12;;;;;;;6.37;5.77;;;10.70;98.50;;;;;;5452234;26;20973;-65
2024/04/12 06:04:37;;;;;;;6.90;5.13;;;10.80;98.10;;;;;;5452185;26;20219;-65
2024/04/12 06:07:11;;;;;;;11.27;5.63;;;10.90;97.90;;;;;;5452153;26;20496;-65
2024/04/12 06:09:37;;;;;;;5.13;4.30;;;11.00;97.60;;;;;;5451897;26;20231;-65
2024/04/12 06:12:06;;;;;;;12.13;4.87;;;11.20;97.60;;;;;;5451852;26;20555;-65
2024/04/12 06:14:33;;;;;;;5.37;4.27;;;11.30;97.10;;;;;;5452315;26;20583;-65
2024/04/12 06:17:06;;;;;;;5.10;4.30;;;11.60;96.70;;;;;;5452027;26;20452;-65
2024/04/12 06:19:37;;;;;;;10.03;5.10;;;11.80;96.80;;;;;;5451925;26;20578;-65
2024/04/12 06:22:13;;;;;;;7.60;5.77;;;12.10;97.00;;;;;;5451726;26;20548;-65
2024/04/12 06:24:42;;;;;;;8.87;6.10;;;12.30;96.30;;;;;;5451946;26;20570;-65
2024/04/12 06:27:09;;;;;;;6.73;5.33;;;12.30;95.60;;;;;;5451864;26;20511;-65
2024/04/12 06:29:35;;;;;;;5.17;4.67;;;12.20;95.60;;;;;;5451757;26;20996;-65
2024/04/12 06:32:01;;;;;;;5.90;3.73;;;12.20;95.80;;;;;;5451548;26;20444;-65
2024/04/12 06:34:27;;;;;;;3.93;3.63;;;12.40;96.10;;;;;;5451784;26;20519;-65
2024/04/12 06:36:56;;;;;;;3.20;2.97;;;12.80;95.30;;;;;;5451784;26;20252;-65
2024/04/12 06:39:28;;;;;;;5.40;3.20;;;13.00;94.80;;;;;;5451399;26;20457;-65
2024/04/12 06:41:55;;;;;;;3.10;2.80;;;13.20;95.60;;;;;;5449827;26;20440;-65
2024/04/12 06:44:21;;;;;;;3.43;3.10;;;13.60;94.50;;;;;;5451866;26;21032;-65
2024/04/12 06:46:51;;;;;;;4.93;2.87;;;13.90;94.90;;;;;;5451566;26;20443;-65
2024/04/12 06:49:27;;;;;;;5.53;3.83;;;14.10;94.50;;;;;;5451358;26;20463;-65
2024/04/12 06:52:09;;;;;;;4.27;3.40;;;14.20;94.20;;;;;;5451290;26;20445;-65
2024/04/12 06:54:41;;;;;;;3.97;2.63;;;14.40;93.40;;;;;;5451493;26;20580;-65
2024/04/12 06:57:21;;;;;;;7.73;3.47;;;14.50;92.20;;;;;;5451256;26;20847;-65
2024/04/12 06:59:53;;;;;;;4.83;4.10;;;14.50;92.60;;;;;;5450688;26;20504;-65
2024/04/12 07:02:26;;;;;;;3.57;3.27;;;14.70;92.70;;;;;;5451310;26;20499;-65
2024/04/12 07:04:56;;;;;;;5.13;3.47;;;14.90;92.10;;;;;;5451304;26;20578;-65
2024/04/12 07:07:23;;;;;;;8.33;3.80;;;14.90;92.10;;;;;;5451216;26;20450;-65
2024/04/12 07:09:57;;;;;;;4.93;4.33;;;15.20;92.30;;;;;;5450720;26;20577;-65
2024/04/12 07:12:27;;;;;;;3.00;2.80;;;15.50;92.20;;;;;;5451383;26;20444;-65
2024/04/12 07:14:56;;;;;;;19.43;10.33;;;15.80;90.90;;;;;;5451028;26;20448;-65
2024/04/12 07:17:23;;;;;;;9.30;5.97;;;16.50;90.00;;;;;;5450958;26;20447;-65
2024/04/12 07:19:53;;;;;;;5.60;3.00;;;17.30;86.90;;;;;;5450476;26;20516;-65
2024/04/12 07:22:20;;;;;;;4.20;3.20;;;18.10;84.10;;;;;;5451017;26;20498;-65
2024/04/12 07:24:52;;;;;;;4.57;4.03;;;19.00;80.40;;;;;;5450845;26;21016;-65
2024/04/12 07:27:22;;;;;;;3.67;3.03;;;20.50;77.60;;;;;;5450815;26;20440;-65
2024/04/12 07:29:49;;;;;;;3.73;3.43;;;22.60;71.40;;;;;;5450384;26;21115;-66
2024/04/12 07:32:22;;;;;;;15.80;8.87;;;24.70;61.00;;;;;;5450791;26;20503;-66
2024/04/12 07:34:48;;;;;;;7.57;4.33;;;26.50;58.40;;;;;;5450793;26;20842;-66
2024/04/12 07:37:36;;;;;;;9.93;6.70;;;27.40;51.00;;;;;;5450589;26;20955;-66
2024/04/12 07:40:24;;;;;;;6.30;5.20;;;28.00;48.90;;;;;;5450408;26;20519;-66
2024/04/12 07:42:52;;;;;;;5.33;4.80;;;29.30;45.20;;;;;;5451075;26;20451;-66
2024/04/12 07:45:23;;;;;;;9.13;5.83;;;30.60;42.80;;;;;;5450838;26;20533;-66
2024/04/12 07:47:53;;;;;;;6.60;6.00;;;31.20;42.10;;;;;;5450340;26;20508;-66
2024/04/12 07:50:31;;;;;;;5.67;4.73;;;32.10;40.60;;;;;;5450346;26;20500;-66
2024/04/12 07:55:58;;;;;;;4.00;3.60;;;33.00;36.40;;;;;;5454075;26;20546;-65
2024/04/12 07:58:27;;;;;;;5.37;3.40;;;33.20;35.20;;;;;;5454007;26;21040;-66
2024/04/12 08:01:09;;;;;;;6.13;5.40;;;33.80;34.90;;;;;;5453591;26;20522;-66
2024/04/12 08:03:36;;;;;;;6.60;5.33;;;33.60;33.80;;;;;;5454063;26;20481;-66
2024/04/12 08:06:03;;;;;;;6.30;4.90;;;33.00;34.50;;;;;;5453926;26;20984;-66
2024/04/12 08:08:30;;;;;;;5.07;4.37;;;33.30;34.30;;;;;;5453659;26;20452;-66
2024/04/12 08:11:11;;;;;;;5.13;3.07;;;33.80;33.40;;;;;;5453549;26;20871;-66
2024/04/12 08:13:50;;;;;;;3.37;3.00;;;34.10;31.80;;;;;;5454014;26;20992;-66
2024/04/12 08:16:16;;;;;;;4.90;3.43;;;34.40;32.70;;;;;;5453811;26;20507;-65
2024/04/12 08:18:43;;;;;;;3.50;2.90;;;34.10;31.20;;;;;;5453506;26;20459;-66
2024/04/12 08:21:12;;;;;;;2.70;2.50;;;34.40;29.90;;;;;;5453395;26;20443;-66
2024/04/12 08:23:43;;;;;;;2.80;2.60;;;34.30;29.70;;;;;;5453607;26;20444;-66
2024/04/12 08:26:11;;;;;;;5.30;3.63;;;34.10;30.00;;;;;;5453588;26;20504;-66
2024/04/12 08:28:40;;;;;;;3.40;2.90;;;34.30;30.00;;;;;;5453616;26;20516;-66
2024/04/12 08:31:10;;;;;;;2.43;2.23;;;34.10;29.10;;;;;;5453430;26;20488;-65
2024/04/12 08:33:40;;;;;;;4.33;2.60;;;34.00;29.60;;;;;;5453394;26;20436;-66
2024/04/12 08:36:14;;;;;;;2.47;2.30;;;34.10;30.00;;;;;;5453482;26;20502;-66
2024/04/12 08:38:54;;;;;;;4.33;2.23;;;34.50;29.30;;;;;;5453225;26;20468;-66
2024/04/12 08:41:23;;;;;;;3.00;2.40;;;34.60;29.40;;;;;;5453246;26;20807;-66
2024/04/12 08:43:58;;;;;;;2.67;2.43;;;34.10;28.90;;;;;;5453243;26;20448;-66
2024/04/12 08:46:28;;;;;;;5.57;3.47;;;33.30;29.90;;;;;;5453316;26;20459;-65
2024/04/12 08:48:55;;;;;;;3.83;3.00;;;32.80;29.80;;;;;;5453347;26;20472;-65
2024/04/12 08:51:22;;;;;;;2.53;2.33;;;33.00;30.40;;;;;;5453020;26;20508;-66
2024/04/12 08:53:55;;;;;;;2.13;2.00;;;33.10;30.00;;;;;;5453132;26;20545;-66
2024/04/12 08:56:23;;;;;;;2.03;1.93;;;33.80;30.80;;;;;;5453125;26;20892;-65
2024/04/12 08:58:52;;;;;;;2.33;2.00;;;34.20;29.60;;;;;;5452780;26;20523;-66
2024/04/12 09:01:24;;;;;;;5.13;2.40;;;33.90;28.50;;;;;;5452983;26;20452;-65
2024/04/12 09:03:53;;;;;;;3.00;2.30;;;33.80;28.90;;;;;;5451952;26;20444;-65
2024/04/12 09:06:23;;;;;;;2.20;2.00;;;33.60;28.60;;;;;;5453061;26;20444;-65
2024/04/12 09:08:53;;;;;;;2.67;1.60;;;33.50;29.20;;;;;;5452647;26;20456;-66
2024/04/12 09:11:25;;;;;;;2.80;1.67;;;33.30;30.10;;;;;;5453084;26;20448;-65
2024/04/12 09:13:53;;;;;;;3.10;2.00;;;33.40;30.20;;;;;;5453276;26;20448;-65
2024/04/12 09:16:19;;;;;;;2.07;1.87;;;32.50;29.60;;;;;;5452783;26;20973;-65
2024/04/12 09:18:51;;;;;;;1.73;1.63;;;32.40;31.30;;;;;;5452415;26;20512;-65
2024/04/12 09:21:24;;;;;;;3.33;2.43;;;32.60;30.10;;;;;;5452542;26;20523;-65
2024/04/12 09:23:56;;;;;;;4.43;2.00;;;33.10;30.00;;;;;;5452802;26;20459;-65
2024/04/12 09:26:23;;;;;;;2.20;1.93;;;33.70;29.30;;;;;;5452647;26;21086;-65
2024/04/12 09:28:50;;;;;;;2.70;1.60;;;33.80;28.90;;;;;;5452387;26;20966;-66
2024/04/12 09:34:22;;;;;;;2.23;1.77;;;34.10;29.00;;;;;;5452750;26;20530;-65
2024/04/12 09:37:01;;;;;;;5.53;2.53;;;33.20;28.80;;;;;;5452642;26;21000;-65
2024/04/12 09:39:57;;;;;;;4.10;2.17;;;32.40;29.60;;;;;;5452192;26;20503;-65
2024/04/12 09:42:15;;;;;;;2.10;1.77;;;31.20;31.20;;;;;;5452227;26;20456;-65
2024/04/12 09:44:59;;;;;;;3.20;1.93;;;30.90;30.70;;;;;;5452512;26;20507;-65
2024/04/12 10:37:28;;;;;;;4.10;1.90;;;25.80;39.80;;;;;;5451773;26;20923;-65
2024/04/12 10:39:58;;;;;;;3.60;1.63;;;25.60;40.00;;;;;;5451287;26;20510;-65
2024/04/12 10:42:28;;;;;;;1.93;1.70;;;25.40;39.80;;;;;;5451611;26;20443;-65
2024/04/12 10:44:56;;;;;;;3.83;2.27;;;25.20;40.70;;;;;;5451738;26;20428;-65
2024/04/12 10:47:25;;;;;;;2.20;1.97;;;24.80;41.40;;;;;;5451674;26;20504;-65
2024/04/12 10:49:52;;;;;;;4.20;2.10;;;24.60;42.00;;;;;;5451317;26;20476;-65
2024/04/12 10:52:28;;;;;;;4.50;2.40;;;24.20;42.60;;;;;;5451527;26;20440;-65
2024/04/12 10:55:01;;;;;;;2.73;1.67;;;24.10;43.40;;;;;;5451496;26;20484;-64
2024/04/12 10:57:30;;;;;;;2.87;2.13;;;23.90;44.00;;;;;;5451324;26;20464;-65
2024/04/12 11:00:00;;;;;;;4.50;2.17;;;23.70;44.10;;;;;;5450713;26;20452;-65
2024/04/12 11:02:27;;;;;;;2.87;1.67;;;23.50;44.40;;;;;;5451393;26;21013;-65
2024/04/12 11:05:05;;;;;;;2.87;2.03;;;23.20;45.60;;;;;;5451282;26;20905;-65
2024/04/12 11:07:32;;;;;;;3.03;2.50;;;22.60;45.80;;;;;;5451182;26;20444;-64
2024/04/12 11:09:58;;;;;;;2.80;2.53;;;22.60;47.40;;;;;;5450748;26;20922;-65
2024/04/12 11:12:40;;;;;;;3.20;2.40;;;22.60;47.30;;;;;;5451215;26;20452;-65
2024/04/12 11:31:52;;;;;;;2.60;2.40;;;22.30;48.00;;;;;;5454331;26;20620;-65
2024/04/12 11:34:19;;;;;;;2.90;2.43;;;22.20;48.40;;;;;;5454198;26;20448;-65
2024/04/12 11:36:45;;;;;;;2.43;1.90;;;21.90;48.80;;;;;;5454202;26;20452;-65
2024/04/12 11:39:25;;;;;;;5.17;2.37;;;21.80;48.80;;;;;;5454009;26;20582;-65
2024/04/12 11:41:52;;;;;;;2.30;2.03;;;22.10;49.60;;;;;;5454112;26;20627;-65
2024/04/12 11:44:18;;;;;;;3.63;2.77;;;22.30;48.70;;;;;;5454296;26;20507;-65
2024/04/12 11:46:48;;;;;;;3.73;1.93;;;22.20;48.40;;;;;;5454193;26;20447;-65
2024/04/12 11:49:25;;;;;;;5.80;3.40;;;22.00;48.40;;;;;;5453710;26;20474;-65
2024/04/12 11:51:55;;;;;;;2.00;1.90;;;21.90;48.50;;;;;;5453843;26;20463;-65
2024/04/12 11:54:31;;;;;;;7.07;3.47;;;21.70;49.20;;;;;;5454163;26;20463;-65
2024/04/12 11:57:01;;;;;;;2.83;2.57;;;21.70;49.50;;;;;;5453992;26;20803;-65
2024/04/12 11:59:29;;;;;;;3.90;2.27;;;21.70;49.60;;;;;;5453804;26;20514;-65
2024/04/12 12:01:59;;;;;;;2.43;1.90;;;21.60;49.10;;;;;;5453629;26;20515;-65
2024/04/12 12:04:43;;;;;;;2.70;2.50;;;21.50;48.50;;;;;;5453896;26;20454;-64
2024/04/12 12:07:11;;;;;;;2.60;1.90;;;21.40;51.50;;;;;;5453939;26;20561;-65
2024/04/12 12:09:37;;;;;;;1.90;1.80;;;21.70;50.40;;;;;;5453594;26;20471;-65
2024/04/12 12:12:10;;;;;;;1.97;1.87;;;21.90;49.40;;;;;;5453610;26;20256;-65
2024/04/12 12:14:42;;;;;;;3.57;2.13;;;21.90;49.30;;;;;;5453861;26;20505;-65
2024/04/12 12:17:09;;;;;;;4.70;2.47;;;21.90;48.50;;;;;;5453763;26;20519;-65
2024/04/12 12:19:35;;;;;;;3.00;2.63;;;21.80;48.90;;;;;;5453559;26;20466;-65
2024/04/12 12:22:02;;;;;;;2.10;1.93;;;21.70;48.50;;;;;;5453928;26;20499;-65
2024/04/12 12:24:37;;;;;;;3.00;2.73;;;21.30;49.80;;;;;;5454051;26;20541;-65
2024/04/12 12:27:09;;;;;;;3.27;2.50;;;21.20;49.80;;;;;;5453810;26;20451;-65
2024/04/12 12:29:35;;;;;;;3.13;2.20;;;21.20;50.30;;;;;;5453700;26;20451;-65
2024/04/12 12:32:02;;;;;;;3.63;2.20;;;21.10;50.70;;;;;;5453506;26;20450;-65
2024/04/12 12:34:27;;;;;;;2.10;2.00;;;21.00;52.20;;;;;;5453299;26;20488;-65
2024/04/12 12:36:55;;;;;;;5.33;2.27;;;21.00;50.90;;;;;;5453423;26;20449;-65
2024/04/12 12:39:21;;;;;;;3.53;1.40;;;21.00;50.40;;;;;;5451503;26;20230;-65
2024/04/12 12:41:47;;;;;;;2.47;2.27;;;21.00;50.50;;;;;;5453159;26;20856;-65
2024/04/12 12:44:18;;;;;;;3.83;1.97;;;21.00;51.40;;;;;;5453450;26;20558;-65
2024/04/12 12:46:44;;;;;;;3.60;2.27;;;21.00;50.80;;;;;;5453292;26;20233;-65
2024/04/12 12:49:10;;;;;;;2.50;2.30;;;20.80;51.10;;;;;;5452959;26;20511;-65
2024/04/12 12:51:40;;;;;;;2.60;1.60;;;20.70;51.40;;;;;;5453038;26;20454;-65
2024/04/12 12:54:06;;;;;;;1.90;1.80;;;20.50;52.00;;;;;;5453198;26;20588;-65
2024/04/12 12:56:32;;;;;;;2.70;1.90;;;20.60;52.00;;;;;;5453226;26;21104;-65
2024/04/12 12:58:59;;;;;;;4.83;2.37;;;20.60;52.00;;;;;;5452848;26;20465;-65
2024/04/12 13:01:34;;;;;;;2.60;2.40;;;20.70;52.00;;;;;;5452875;26;20226;-65
2024/04/12 13:04:07;;;;;;;3.50;2.50;;;20.80;51.50;;;;;;5452971;26;20516;-65
2024/04/12 13:06:36;;;;;;;5.90;2.10;;;21.00;51.70;;;;;;5453004;26;20520;-65
2024/04/12 13:09:04;;;;;;;1.80;1.70;;;21.10;51.70;;;;;;5452821;26;20465;-65
2024/04/12 13:11:32;;;;;;;1.90;1.70;;;21.10;51.30;;;;;;5452751;26;20994;-65
2024/04/12 13:14:09;;;;;;;6.20;2.47;;;21.10;51.30;;;;;;5452914;26;20572;-65
2024/04/12 13:16:41;;;;;;;3.73;2.77;;;21.00;51.00;;;;;;5452869;26;20564;-65
2024/04/12 13:19:08;;;;;;;3.17;2.07;;;20.80;51.00;;;;;;5452390;26;20505;-65
2024/04/12 13:21:33;;;;;;;2.43;2.20;;;20.80;51.50;;;;;;5452589;26;20503;-65
2024/04/12 13:23:59;;;;;;;1.93;1.80;;;20.80;51.80;;;;;;5452855;26;20468;-65
2024/04/12 13:26:31;;;;;;;1.73;1.63;;;20.70;51.80;;;;;;5452844;26;20222;-67
2024/04/12 13:28:57;;;;;;;2.30;2.10;;;20.60;52.40;;;;;;5452414;26;20240;-66
2024/04/12 13:31:24;;;;;;;4.33;2.50;;;20.60;52.10;;;;;;5452394;26;20440;-64
2024/04/12 13:33:56;;;;;;;5.13;2.13;;;20.70;52.60;;;;;;5452500;26;20223;-64
2024/04/12 13:36:22;;;;;;;2.10;2.00;;;20.80;51.80;;;;;;5452566;26;20853;-64
2024/04/12 13:38:49;;;;;;;2.43;2.23;;;20.80;51.60;;;;;;5452299;26;20606;-64
2024/04/12 13:41:15;;;;;;;2.20;2.10;;;20.80;51.80;;;;;;5452628;26;20500;-64
2024/04/12 13:43:46;;;;;;;2.03;1.77;;;21.00;51.80;;;;;;5452420;26;20604;-64
2024/04/12 13:51:49;;;;;;;2.13;2.03;;;21.30;51.40;;;;;;5451569;26;20488;-64
2024/04/12 13:54:23;;;;;;;2.70;2.37;;;21.30;51.80;;;;;;5452343;26;20451;-64
2024/04/12 13:56:50;;;;;;;2.30;2.20;;;21.40;51.10;;;;;;5452399;26;20469;-64
2024/04/12 13:59:16;;;;;;;2.03;1.80;;;21.40;50.70;;;;;;5452122;26;20515;-64
2024/04/12 14:01:41;;;;;;;2.10;1.70;;;21.40;50.60;;;;;;5452156;26;20454;-64
2024/04/12 14:04:13;;;;;;;2.80;1.60;;;21.40;50.90;;;;;;5452373;26;20217;-64
2024/04/12 14:06:39;;;;;;;4.07;1.77;;;21.30;51.20;;;;;;5452679;26;20221;-64
2024/04/12 14:09:09;;;;;;;6.20;2.37;;;21.40;51.60;;;;;;5451953;26;20575;-64
2024/04/12 14:11:35;;;;;;;2.80;1.80;;;21.40;51.40;;;;;;5451871;26;20266;-64
2024/04/12 14:14:03;;;;;;;2.00;1.90;;;21.30;51.50;;;;;;5452142;26;20455;-64
2024/04/12 14:16:32;;;;;;;2.37;2.17;;;21.20;52.00;;;;;;5451934;26;20596;-64
2024/04/12 14:19:00;;;;;;;1.70;1.60;;;21.20;51.80;;;;;;5451643;26;20524;-64
2024/04/12 14:21:27;;;;;;;2.70;2.07;;;21.20;52.00;;;;;;5451750;26;20440;-64